createdAt,value
2018-06-17T00:00:21.562Z,998.59
2018-06-17T00:01:21.561Z,998.62
2018-06-17T00:02:21.574Z,998.62
2018-06-17T00:03:21.592Z,998.64
2018-06-17T00:04:21.567Z,998.62
2018-06-17T00:05:21.591Z,998.62
2018-06-17T00:06:21.621Z,998.61
2018-06-17T00:07:22.293Z,998.61
2018-06-17T00:08:21.583Z,998.60
2018-06-17T00:09:21.578Z,998.63
2018-06-17T00:10:21.580Z,998.59
2018-06-17T00:11:21.583Z,998.62
2018-06-17T00:12:21.639Z,998.64
2018-06-17T00:13:21.596Z,998.61
2018-06-17T00:14:21.590Z,998.58
2018-06-17T00:15:21.596Z,998.64
2018-06-17T00:16:21.597Z,998.64
2018-06-17T00:17:21.595Z,998.60
2018-06-17T00:18:21.616Z,998.65
2018-06-17T00:19:21.611Z,998.72
2018-06-17T00:20:21.809Z,998.68
2018-06-17T00:21:21.614Z,998.68
2018-06-17T00:22:21.848Z,998.69
2018-06-17T00:23:21.608Z,998.68
2018-06-17T00:24:21.648Z,998.66
2018-06-17T00:25:21.612Z,998.66
2018-06-17T00:26:21.612Z,998.70
2018-06-17T00:27:21.615Z,998.66
2018-06-17T00:28:21.628Z,998.65
2018-06-17T00:29:21.625Z,998.66
2018-06-17T00:30:21.623Z,998.64
2018-06-17T00:31:21.623Z,998.65
2018-06-17T00:32:21.623Z,998.61
2018-06-17T00:33:21.626Z,998.61
2018-06-17T00:34:21.627Z,998.59
2018-06-17T00:35:21.674Z,998.58
2018-06-17T00:36:21.631Z,998.59
2018-06-17T00:37:21.636Z,998.56
2018-06-17T00:38:21.971Z,998.60
2018-06-17T00:39:21.637Z,998.58
2018-06-17T00:40:21.640Z,998.57
2018-06-17T00:41:21.688Z,998.57
2018-06-17T00:42:22.749Z,998.56
2018-06-17T00:43:21.651Z,998.58
2018-06-17T00:44:21.644Z,998.56
2018-06-17T00:45:21.655Z,998.54
2018-06-17T00:46:21.649Z,998.59
2018-06-17T00:47:22.652Z,998.59
2018-06-17T00:48:21.652Z,998.57
2018-06-17T00:49:21.656Z,998.56
2018-06-17T00:50:21.657Z,998.55
2018-06-17T00:51:21.658Z,998.57
2018-06-17T00:52:21.661Z,998.54
2018-06-17T00:53:21.660Z,998.57
2018-06-17T00:54:21.666Z,998.56
2018-06-17T00:55:21.668Z,998.55
2018-06-17T00:56:21.665Z,998.55
2018-06-17T00:57:22.675Z,998.58
2018-06-17T00:58:22.666Z,998.61
2018-06-17T00:59:21.671Z,998.60
2018-06-17T01:00:21.672Z,998.60
2018-06-17T01:01:21.673Z,998.62
2018-06-17T01:02:21.679Z,998.62
2018-06-17T01:03:21.688Z,998.64
2018-06-17T01:04:21.678Z,998.66
2018-06-17T01:05:21.680Z,998.66
2018-06-17T01:06:21.682Z,998.65
2018-06-17T01:07:21.687Z,998.62
2018-06-17T01:08:21.691Z,998.65
2018-06-17T01:09:21.687Z,998.66
2018-06-17T01:10:21.694Z,998.66
2018-06-17T01:11:21.703Z,998.64
2018-06-17T01:12:21.691Z,998.64
2018-06-17T01:13:21.891Z,998.65
2018-06-17T01:14:21.699Z,998.69
2018-06-17T01:15:21.701Z,998.64
2018-06-17T01:16:21.699Z,998.64
2018-06-17T01:17:21.701Z,998.67
2018-06-17T01:18:21.754Z,998.63
2018-06-17T01:19:21.705Z,998.64
2018-06-17T01:20:21.705Z,998.61
2018-06-17T01:21:21.705Z,998.61
2018-06-17T01:22:21.709Z,998.59
2018-06-17T01:23:21.710Z,998.60
2018-06-17T01:24:21.709Z,998.60
2018-06-17T01:25:21.827Z,998.58
2018-06-17T01:26:21.718Z,998.59
2018-06-17T01:27:21.731Z,998.57
2018-06-17T01:28:21.727Z,998.57
2018-06-17T01:29:21.718Z,998.58
2018-06-17T01:30:21.724Z,998.57
2018-06-17T01:31:21.724Z,998.56
2018-06-17T01:32:21.880Z,998.55
2018-06-17T01:33:21.726Z,998.58
2018-06-17T01:34:21.726Z,998.54
2018-06-17T01:35:21.733Z,998.59
2018-06-17T01:36:21.747Z,998.57
2018-06-17T01:37:21.736Z,998.60
2018-06-17T01:38:21.758Z,998.59
2018-06-17T01:39:21.734Z,998.60
2018-06-17T01:40:21.737Z,998.55
2018-06-17T01:41:21.740Z,998.55
2018-06-17T01:42:21.747Z,998.54
2018-06-17T01:44:22.332Z,998.53
2018-06-17T01:45:43.413Z,998.51
2018-06-17T01:46:22.325Z,998.53
2018-06-17T01:47:22.320Z,998.55
2018-06-17T01:49:55.023Z,998.56
2018-06-17T01:52:08.612Z,998.56
2018-06-17T01:54:22.353Z,998.54
2018-06-17T01:56:36.439Z,998.53
2018-06-17T01:58:49.860Z,998.52
2018-06-17T02:01:03.593Z,998.50
2018-06-17T02:03:17.784Z,998.49
2018-06-17T02:05:31.181Z,998.49
2018-06-17T02:07:44.810Z,998.47
2018-06-17T02:09:58.545Z,998.46
2018-06-17T02:12:12.330Z,998.46
2018-06-17T02:14:26.024Z,998.41
2018-06-17T02:15:26.020Z,998.45
2018-06-17T02:17:20.459Z,998.44
2018-06-17T02:18:20.398Z,998.44
2018-06-17T02:20:14.816Z,998.43
2018-06-17T02:21:14.780Z,998.47
2018-06-17T02:23:09.264Z,998.46
2018-06-17T02:24:09.151Z,998.45
2018-06-17T02:26:03.611Z,998.46
2018-06-17T02:27:03.528Z,998.46
2018-06-17T02:28:57.957Z,998.44
2018-06-17T02:29:57.905Z,998.46
2018-06-17T02:31:52.391Z,998.47
2018-06-17T02:32:52.291Z,998.45
2018-06-17T02:34:46.672Z,998.45
2018-06-17T02:35:46.667Z,998.45
2018-06-17T02:37:41.114Z,998.46
2018-06-17T02:38:41.044Z,998.43
2018-06-17T02:40:35.424Z,998.43
2018-06-17T02:41:35.422Z,998.41
2018-06-17T02:43:29.880Z,998.42
2018-06-17T02:44:29.789Z,998.39
2018-06-17T02:46:24.239Z,998.43
2018-06-17T02:47:24.168Z,998.41
2018-06-17T02:49:18.622Z,998.42
2018-06-17T02:50:18.558Z,998.44
2018-06-17T02:52:12.982Z,998.47
2018-06-17T02:53:12.936Z,998.52
2018-06-17T02:55:07.318Z,998.50
2018-06-17T02:56:07.315Z,998.49
2018-06-17T02:58:01.799Z,998.53
2018-06-17T02:59:01.691Z,998.53
2018-06-17T03:00:56.077Z,998.51
2018-06-17T03:01:56.074Z,998.51
2018-06-17T03:03:50.625Z,998.56
2018-06-17T03:04:50.443Z,998.50
2018-06-17T03:06:44.893Z,998.51
2018-06-17T03:07:44.823Z,998.51
2018-06-17T03:09:39.219Z,998.54
2018-06-17T03:10:39.216Z,998.51
2018-06-17T03:12:33.893Z,998.49
2018-06-17T03:13:33.584Z,998.52
2018-06-17T03:15:27.965Z,998.51
2018-06-17T03:16:27.959Z,998.51
2018-06-17T03:18:38.455Z,998.48
2018-06-17T03:19:22.328Z,998.53
2018-06-17T03:21:16.797Z,998.47
2018-06-17T03:22:16.710Z,998.47
2018-06-17T03:24:11.232Z,998.48
2018-06-17T03:25:11.090Z,998.44
2018-06-17T03:27:05.487Z,998.45
2018-06-17T03:28:05.486Z,998.45
2018-06-17T03:29:59.917Z,998.46
2018-06-17T03:30:59.867Z,998.49
2018-06-17T03:32:54.304Z,998.48
2018-06-17T03:33:54.344Z,998.47
2018-06-17T03:35:48.613Z,998.49
2018-06-17T03:36:48.611Z,998.52
2018-06-17T03:38:43.050Z,998.53
2018-06-17T03:39:42.986Z,998.58
2018-06-17T03:41:37.368Z,998.77
2018-06-17T03:42:37.370Z,998.82
2018-06-17T03:44:32.122Z,998.96
2018-06-17T03:45:31.738Z,998.99
2018-06-17T03:47:26.110Z,998.86
2018-06-17T03:48:26.103Z,998.87
2018-06-17T03:50:20.543Z,998.90
2018-06-17T03:51:20.481Z,998.92
2018-06-17T03:53:14.877Z,998.89
2018-06-17T03:54:14.881Z,998.90
2018-06-17T03:56:09.329Z,998.94
2018-06-17T03:57:09.266Z,998.99
2018-06-17T03:59:03.638Z,998.94
2018-06-17T04:00:03.636Z,998.92
2018-06-17T04:01:58.130Z,998.91
2018-06-17T04:02:58.016Z,998.88
2018-06-17T04:04:52.392Z,998.87
2018-06-17T04:05:52.393Z,998.86
2018-06-17T04:07:46.809Z,998.83
2018-06-17T04:08:46.763Z,998.83
2018-06-17T04:10:41.199Z,998.86
2018-06-17T04:11:41.143Z,998.83
2018-06-17T04:13:35.624Z,998.83
2018-06-17T04:14:35.530Z,998.86
2018-06-17T04:16:29.963Z,998.84
2018-06-17T04:17:29.909Z,998.83
2018-06-17T04:19:24.904Z,998.88
2018-06-17T04:20:24.302Z,998.91
2018-06-17T04:22:18.662Z,998.93
2018-06-17T04:23:18.659Z,998.95
2018-06-17T04:25:13.228Z,998.94
2018-06-17T04:26:13.036Z,998.92
2018-06-17T04:28:07.424Z,998.92
2018-06-17T04:29:07.421Z,998.91
2018-06-17T04:31:01.914Z,998.89
2018-06-17T04:32:01.798Z,998.87
2018-06-17T04:33:56.253Z,998.90
2018-06-17T04:34:56.193Z,998.95
2018-06-17T04:36:50.567Z,999.01
2018-06-17T04:37:50.563Z,998.99
2018-06-17T04:39:45.052Z,999.02
2018-06-17T04:40:44.945Z,999.07
2018-06-17T04:42:39.325Z,999.05
2018-06-17T04:43:39.326Z,999.08
2018-06-17T04:45:33.982Z,999.08
2018-06-17T04:46:33.707Z,999.08
2018-06-17T04:48:28.121Z,999.07
2018-06-17T04:49:28.097Z,999.04
2018-06-17T04:51:22.526Z,999.00
2018-06-17T04:52:22.459Z,998.96
2018-06-17T04:54:16.843Z,999.06
2018-06-17T04:55:16.840Z,999.06
2018-06-17T04:57:11.341Z,999.06
2018-06-17T04:58:11.220Z,999.03
2018-06-17T05:00:05.669Z,998.96
2018-06-17T05:01:05.598Z,998.94
2018-06-17T05:03:00.037Z,998.91
2018-06-17T05:03:59.977Z,998.96
2018-06-17T05:05:55.215Z,998.96
2018-06-17T05:06:55.208Z,998.89
2018-06-17T05:08:49.706Z,998.94
2018-06-17T05:09:49.595Z,999.02
2018-06-17T05:11:44.017Z,999.04
2018-06-17T05:12:43.974Z,999.04
2018-06-17T05:14:38.355Z,999.07
2018-06-17T05:15:38.355Z,999.09
2018-06-17T05:17:32.784Z,999.08
2018-06-17T05:18:32.737Z,999.12
2018-06-17T05:20:27.185Z,999.07
2018-06-17T05:21:27.123Z,999.06
2018-06-17T05:23:21.497Z,999.06
2018-06-17T05:24:21.503Z,999.08
2018-06-17T05:26:15.981Z,999.07
2018-06-17T05:27:15.874Z,999.08
2018-06-17T05:29:10.310Z,999.02
2018-06-17T05:30:10.255Z,999.02
2018-06-17T05:32:04.640Z,999.07
2018-06-17T05:33:04.642Z,999.10
2018-06-17T05:34:59.415Z,999.16
2018-06-17T05:35:59.040Z,999.16
2018-06-17T05:37:53.451Z,999.11
2018-06-17T05:38:53.406Z,999.15
2018-06-17T05:40:47.899Z,999.16
2018-06-17T05:41:47.846Z,999.18
2018-06-17T05:43:42.201Z,999.16
2018-06-17T05:44:42.188Z,999.18
2018-06-17T05:46:36.617Z,999.19
2018-06-17T05:47:36.616Z,999.18
2018-06-17T05:49:30.967Z,999.16
2018-06-17T05:50:30.964Z,999.15
2018-06-17T05:52:25.395Z,999.16
2018-06-17T05:53:25.401Z,999.16
2018-06-17T05:55:19.838Z,999.20
2018-06-17T05:56:19.742Z,999.23
2018-06-17T05:58:14.121Z,999.22
2018-06-17T05:59:14.127Z,999.20
2018-06-17T06:01:08.611Z,999.19
2018-06-17T06:02:08.506Z,999.18
2018-06-17T06:04:03.002Z,999.22
2018-06-17T06:05:02.890Z,999.22
2018-06-17T06:06:57.349Z,999.24
2018-06-17T06:07:57.291Z,999.23
2018-06-17T06:09:52.529Z,999.25
2018-06-17T06:10:51.705Z,999.27
2018-06-17T06:12:46.208Z,999.29
2018-06-17T06:13:46.101Z,999.28
2018-06-17T06:15:40.540Z,999.27
2018-06-17T06:16:40.487Z,999.31
2018-06-17T06:18:34.866Z,999.35
2018-06-17T06:19:34.871Z,999.36
2018-06-17T06:21:29.300Z,999.39
2018-06-17T06:22:29.243Z,999.34
2018-06-17T06:24:23.633Z,999.34
2018-06-17T06:25:23.632Z,999.31
2018-06-17T06:27:18.067Z,999.32
2018-06-17T06:28:18.008Z,999.40
2018-06-17T06:30:12.395Z,999.44
2018-06-17T06:31:12.394Z,999.43
2018-06-17T06:33:06.913Z,999.42
2018-06-17T06:34:06.793Z,999.48
2018-06-17T06:36:01.179Z,999.44
2018-06-17T06:37:01.182Z,999.47
2018-06-17T06:38:55.642Z,999.45
2018-06-17T06:39:55.571Z,999.48
2018-06-17T06:41:49.962Z,999.46
2018-06-17T06:42:49.963Z,999.48
2018-06-17T06:44:44.407Z,999.51
2018-06-17T06:45:44.358Z,999.56
2018-06-17T06:47:38.737Z,999.60
2018-06-17T06:48:38.742Z,999.60
2018-06-17T06:50:33.805Z,999.61
2018-06-17T06:51:33.129Z,999.56
2018-06-17T06:53:27.561Z,999.64
2018-06-17T06:54:27.511Z,999.59
2018-06-17T06:56:22.198Z,999.66
2018-06-17T06:57:21.902Z,999.67
2018-06-17T06:59:16.292Z,999.67
2018-06-17T07:00:16.287Z,999.68
2018-06-17T07:02:10.712Z,999.70
2018-06-17T07:03:10.719Z,999.72
2018-06-17T07:05:05.113Z,999.69
2018-06-17T07:06:05.061Z,999.75
2018-06-17T07:07:59.444Z,999.72
2018-06-17T07:08:59.453Z,999.72
2018-06-17T07:10:53.945Z,999.73
2018-06-17T07:11:53.845Z,999.74
2018-06-17T07:13:48.230Z,999.76
2018-06-17T07:14:48.232Z,999.78
2018-06-17T07:16:42.716Z,999.78
2018-06-17T07:17:42.604Z,999.79
2018-06-17T07:19:36.998Z,999.81
2018-06-17T07:20:36.994Z,999.83
2018-06-17T07:22:31.425Z,999.84
2018-06-17T07:23:31.383Z,999.85
2018-06-17T07:25:25.767Z,999.86
2018-06-17T07:26:25.766Z,999.88
2018-06-17T07:28:20.276Z,999.87
2018-06-17T07:29:20.171Z,999.91
2018-06-17T07:31:14.541Z,999.88
2018-06-17T07:32:14.540Z,999.87
2018-06-17T07:34:08.962Z,999.91
2018-06-17T07:35:08.928Z,999.88
2018-06-17T07:37:03.378Z,999.89
2018-06-17T07:38:03.313Z,999.85
2018-06-17T07:39:57.703Z,999.88
2018-06-17T07:40:57.705Z,999.91
2018-06-17T07:42:52.197Z,999.91
2018-06-17T07:43:52.167Z,999.97
2018-06-17T07:45:46.483Z,1000.01
2018-06-17T07:46:46.483Z,1000.02
2018-06-17T07:48:40.975Z,1000.02
2018-06-17T07:49:40.870Z,1000.00
2018-06-17T07:51:35.364Z,999.99
2018-06-17T07:52:35.248Z,1000.06
2018-06-17T07:54:29.639Z,1000.08
2018-06-17T07:55:29.645Z,1000.06
2018-06-17T07:57:24.668Z,1000.02
2018-06-17T07:58:24.033Z,1000.00
2018-06-17T08:00:18.463Z,999.95
2018-06-17T08:01:18.416Z,999.94
2018-06-17T08:03:12.800Z,999.96
2018-06-17T08:04:12.806Z,1000.00
2018-06-17T08:06:07.251Z,1000.00
2018-06-17T08:07:07.191Z,999.98
2018-06-17T08:09:01.583Z,1000.06
2018-06-17T08:10:01.582Z,1000.08
2018-06-17T08:11:56.370Z,1000.13
2018-06-17T08:12:55.965Z,1000.07
2018-06-17T08:14:50.402Z,1000.06
2018-06-17T08:15:50.376Z,1000.09
2018-06-17T08:17:44.787Z,1000.12
2018-06-17T08:18:44.751Z,1000.12
2018-06-17T08:20:39.186Z,1000.05
2018-06-17T08:21:39.119Z,1000.06
2018-06-17T08:23:33.508Z,1000.05
2018-06-17T08:24:33.506Z,1000.06
2018-06-17T08:26:28.137Z,1000.06
2018-06-17T08:27:27.904Z,1000.06
2018-06-17T08:29:22.497Z,1000.07
2018-06-17T08:30:22.282Z,1000.08
2018-06-17T08:32:16.682Z,1000.07
2018-06-17T08:33:16.764Z,1000.06
2018-06-17T08:35:11.373Z,1000.13
2018-06-17T08:36:11.071Z,1000.11
2018-06-17T08:38:05.576Z,1000.12
2018-06-17T08:39:05.480Z,1000.19
2018-06-17T08:40:59.868Z,1000.16
2018-06-17T08:41:59.869Z,1000.16
2018-06-17T08:43:54.347Z,1000.21
2018-06-17T08:44:54.257Z,1000.20
2018-06-17T08:46:48.692Z,1000.15
2018-06-17T08:47:48.660Z,1000.17
2018-06-17T08:49:43.144Z,1000.21
2018-06-17T08:50:43.044Z,1000.22
2018-06-17T08:52:37.486Z,1000.18
2018-06-17T08:53:37.429Z,1000.22
2018-06-17T08:55:31.817Z,1000.31
2018-06-17T08:56:31.819Z,1000.37
2018-06-17T08:58:27.691Z,1000.35
2018-06-17T08:59:26.209Z,1000.30
2018-06-17T09:01:20.596Z,1000.33
2018-06-17T09:02:20.600Z,1000.36
2018-06-17T09:04:15.030Z,1000.33
2018-06-17T09:05:14.997Z,1000.29
2018-06-17T09:07:09.602Z,1000.32
2018-06-17T09:08:09.392Z,1000.29
2018-06-17T09:10:03.768Z,1000.26
2018-06-17T09:11:03.770Z,1000.24
2018-06-17T09:12:58.263Z,1000.22
2018-06-17T09:13:58.197Z,1000.28
2018-06-17T09:15:52.550Z,1000.30
2018-06-17T09:16:52.552Z,1000.34
2018-06-17T09:18:47.007Z,1000.32
2018-06-17T09:19:46.955Z,1000.31
2018-06-17T09:21:41.333Z,1000.32
2018-06-17T09:22:41.335Z,1000.31
2018-06-17T09:24:35.828Z,1000.30
2018-06-17T09:25:35.721Z,1000.31
2018-06-17T09:27:30.122Z,1000.28
2018-06-17T09:28:30.110Z,1000.31
2018-06-17T09:30:24.768Z,1000.28
2018-06-17T09:31:24.564Z,1000.28
2018-06-17T09:33:18.882Z,1000.29
2018-06-17T09:34:18.884Z,1000.26
2018-06-17T09:36:13.313Z,1000.29
2018-06-17T09:37:13.274Z,1000.29
2018-06-17T09:39:07.648Z,1000.24
2018-06-17T09:40:07.648Z,1000.28
2018-06-17T09:42:02.269Z,1000.28
2018-06-17T09:43:02.055Z,1000.25
2018-06-17T09:44:56.501Z,1000.28
2018-06-17T09:45:56.452Z,1000.21
2018-06-17T09:47:50.914Z,1000.31
2018-06-17T09:48:50.844Z,1000.22
2018-06-17T09:50:49.867Z,1000.25
2018-06-17T09:51:49.858Z,1000.31
2018-06-17T09:53:44.293Z,1000.30
2018-06-17T09:54:44.248Z,1000.28
2018-06-17T09:56:38.637Z,1000.29
2018-06-17T09:57:38.639Z,1000.35
2018-06-17T09:59:33.130Z,1000.31
2018-06-17T10:00:33.040Z,1000.28
2018-06-17T10:02:27.524Z,1000.31
2018-06-17T10:03:27.510Z,1000.36
2018-06-17T10:05:21.880Z,1000.36
2018-06-17T10:06:21.818Z,1000.37
2018-06-17T10:08:16.204Z,1000.36
2018-06-17T10:09:16.210Z,1000.33
2018-06-17T10:11:10.639Z,1000.36
2018-06-17T10:12:10.593Z,1000.34
2018-06-17T10:14:05.050Z,1000.28
2018-06-17T10:15:04.988Z,1000.32
2018-06-17T10:16:59.371Z,1000.32
2018-06-17T10:17:59.400Z,1000.30
2018-06-17T10:19:54.128Z,1000.26
2018-06-17T10:20:53.767Z,1000.27
2018-06-17T10:22:48.144Z,1000.27
2018-06-17T10:23:48.146Z,1000.27
2018-06-17T10:25:42.596Z,1000.21
2018-06-17T10:26:42.535Z,1000.28
2018-06-17T10:28:36.926Z,1000.21
2018-06-17T10:29:36.938Z,1000.25
2018-06-17T10:31:31.604Z,1000.23
2018-06-17T10:32:31.317Z,1000.17
2018-06-17T10:34:25.699Z,1000.20
2018-06-17T10:35:25.702Z,1000.21
2018-06-17T10:37:20.203Z,1000.14
2018-06-17T10:38:20.097Z,1000.12
2018-06-17T10:40:14.525Z,1000.07
2018-06-17T10:41:14.478Z,1000.10
2018-06-17T10:43:08.874Z,1000.06
2018-06-17T10:44:08.877Z,1000.07
2018-06-17T10:46:03.543Z,1000.07
2018-06-17T10:47:03.271Z,1000.04
2018-06-17T10:48:57.757Z,1000.04
2018-06-17T10:49:57.677Z,1000.03
2018-06-17T10:51:52.098Z,999.98
2018-06-17T10:52:52.092Z,999.99
2018-06-17T10:54:46.577Z,999.94
2018-06-17T10:55:46.558Z,999.95
2018-06-17T10:57:40.904Z,999.96
2018-06-17T10:58:40.873Z,999.92
2018-06-17T11:00:39.974Z,999.87
2018-06-17T11:01:39.860Z,999.89
2018-06-17T11:03:34.258Z,999.81
2018-06-17T11:04:34.263Z,999.82
2018-06-17T11:06:28.707Z,999.79
2018-06-17T11:07:28.673Z,999.79
2018-06-17T11:09:23.134Z,999.80
2018-06-17T11:10:23.177Z,999.77
2018-06-17T11:12:17.475Z,999.79
2018-06-17T11:13:17.612Z,999.78
2018-06-17T11:15:11.937Z,999.79
2018-06-17T11:16:11.899Z,999.74
2018-06-17T11:18:06.329Z,999.79
2018-06-17T11:19:06.311Z,999.79
2018-06-17T11:21:00.816Z,999.75
2018-06-17T11:22:00.726Z,999.74
2018-06-17T11:23:55.188Z,999.72
2018-06-17T11:24:55.135Z,999.76
2018-06-17T11:26:49.537Z,999.74
2018-06-17T11:27:49.541Z,999.77
2018-06-17T11:29:44.007Z,999.69
2018-06-17T11:30:43.944Z,999.70
2018-06-17T11:32:38.341Z,999.64
2018-06-17T11:33:38.351Z,999.63
2018-06-17T11:35:32.824Z,999.61
2018-06-17T11:36:32.763Z,999.64
2018-06-17T11:38:27.170Z,999.66
2018-06-17T11:39:27.173Z,999.69
2018-06-17T11:41:21.711Z,999.74
2018-06-17T11:42:21.573Z,999.75
2018-06-17T11:44:16.012Z,999.68
2018-06-17T11:45:15.976Z,999.70
2018-06-17T11:47:10.483Z,999.61
2018-06-17T11:48:10.390Z,999.61
2018-06-17T11:50:04.824Z,999.66
2018-06-17T11:51:04.788Z,999.63
2018-06-17T11:52:59.242Z,999.57
2018-06-17T11:53:59.286Z,999.54
2018-06-17T11:55:53.587Z,999.60
2018-06-17T11:56:53.593Z,999.59
2018-06-17T11:58:48.095Z,999.56
2018-06-17T11:59:48.030Z,999.51
2018-06-17T12:01:42.391Z,999.52
2018-06-17T12:02:42.400Z,999.58
2018-06-17T12:04:36.852Z,999.60
2018-06-17T12:05:36.810Z,999.53
2018-06-17T12:07:33.681Z,999.55
2018-06-17T12:08:33.196Z,999.59
2018-06-17T12:09:33.212Z,999.56
2018-06-17T12:10:33.216Z,999.58
2018-06-17T12:11:33.228Z,999.57
2018-06-17T12:12:33.238Z,999.58
2018-06-17T12:13:33.246Z,999.54
2018-06-17T12:14:33.258Z,999.50
2018-06-17T12:15:33.270Z,999.53
2018-06-17T12:16:33.281Z,999.57
2018-06-17T12:17:33.290Z,999.58
2018-06-17T12:18:33.304Z,999.59
2018-06-17T12:19:33.312Z,999.60
2018-06-17T12:20:33.323Z,999.58
2018-06-17T12:21:33.334Z,999.54
2018-06-17T12:22:33.345Z,999.53
2018-06-17T12:23:33.361Z,999.49
2018-06-17T12:24:33.379Z,999.48
2018-06-17T12:25:33.380Z,999.42
2018-06-17T12:26:33.390Z,999.39
2018-06-17T12:27:33.407Z,999.37
2018-06-17T12:28:33.411Z,999.42
2018-06-17T12:29:33.431Z,999.48
2018-06-17T12:30:33.432Z,999.43
2018-06-17T12:31:33.443Z,999.41
2018-06-17T12:32:33.454Z,999.41
2018-06-17T12:33:33.482Z,999.46
2018-06-17T12:34:33.478Z,999.46
2018-06-17T12:35:33.488Z,999.47
2018-06-17T12:36:33.494Z,999.41
2018-06-17T12:37:33.503Z,999.45
2018-06-17T12:38:33.514Z,999.45
2018-06-17T12:39:33.524Z,999.41
2018-06-17T12:40:33.534Z,999.44
2018-06-17T12:41:33.543Z,999.37
2018-06-17T12:42:33.556Z,999.38
2018-06-17T12:43:33.564Z,999.44
2018-06-17T12:44:33.578Z,999.38
2018-06-17T12:45:33.587Z,999.34
2018-06-17T12:46:33.600Z,999.32
2018-06-17T12:47:33.612Z,999.37
2018-06-17T12:48:33.617Z,999.40
2018-06-17T12:49:33.631Z,999.45
2018-06-17T12:50:33.708Z,999.41
2018-06-17T12:51:33.659Z,999.35
2018-06-17T12:52:33.662Z,999.38
2018-06-17T12:53:33.674Z,999.39
2018-06-17T12:54:33.690Z,999.40
2018-06-17T12:55:33.698Z,999.36
2018-06-17T12:56:33.732Z,999.36
2018-06-17T12:57:33.726Z,999.32
2018-06-17T12:58:33.735Z,999.38
2018-06-17T12:59:33.746Z,999.42
2018-06-17T13:00:33.758Z,999.40
2018-06-17T13:01:33.822Z,999.44
2018-06-17T13:02:33.786Z,999.53
2018-06-17T13:03:33.795Z,999.53
2018-06-17T13:04:33.844Z,999.48
2018-06-17T13:05:33.815Z,999.45
2018-06-17T13:06:33.826Z,999.51
2018-06-17T13:07:33.840Z,999.53
2018-06-17T13:08:33.847Z,999.48
2018-06-17T13:09:33.861Z,999.46
2018-06-17T13:10:33.871Z,999.44
2018-06-17T13:11:33.877Z,999.48
2018-06-17T13:12:33.896Z,999.49
2018-06-17T13:13:33.897Z,999.48
2018-06-17T13:14:33.907Z,999.48
2018-06-17T13:15:33.917Z,999.50
2018-06-17T13:16:33.935Z,999.46
2018-06-17T13:17:33.934Z,999.48
2018-06-17T13:18:33.943Z,999.49
2018-06-17T13:19:33.956Z,999.47
2018-06-17T13:20:33.961Z,999.43
2018-06-17T13:21:33.971Z,999.44
2018-06-17T13:22:33.978Z,999.51
2018-06-17T13:23:33.992Z,999.46
2018-06-17T13:24:33.997Z,999.39
2018-06-17T13:25:34.006Z,999.46
2018-06-17T13:26:34.013Z,999.46
2018-06-17T13:27:34.023Z,999.50
2018-06-17T13:28:34.030Z,999.53
2018-06-17T13:29:34.038Z,999.44
2018-06-17T13:30:34.050Z,999.39
2018-06-17T13:31:34.073Z,999.47
2018-06-17T13:32:34.067Z,999.43
2018-06-17T13:33:34.075Z,999.49
2018-06-17T13:34:34.085Z,999.49
2018-06-17T13:35:34.108Z,999.42
2018-06-17T13:36:34.105Z,999.49
2018-06-17T13:37:34.114Z,999.53
2018-06-17T13:38:34.126Z,999.51
2018-06-17T13:39:34.137Z,999.51
2018-06-17T13:40:34.148Z,999.48
2018-06-17T13:41:34.160Z,999.51
2018-06-17T13:42:34.171Z,999.63
2018-06-17T13:43:34.186Z,999.68
2018-06-17T13:44:34.197Z,999.63
2018-06-17T13:45:34.205Z,999.64
2018-06-17T13:46:34.216Z,999.60
2018-06-17T13:47:34.226Z,999.61
2018-06-17T13:48:34.237Z,999.58
2018-06-17T13:49:34.247Z,999.70
2018-06-17T13:50:34.259Z,999.63
2018-06-17T13:51:34.274Z,999.62
2018-06-17T13:52:34.288Z,999.62
2018-06-17T13:53:34.290Z,999.63
2018-06-17T13:54:34.303Z,999.67
2018-06-17T13:55:34.311Z,999.64
2018-06-17T13:56:34.325Z,999.68
2018-06-17T13:57:34.332Z,999.70
2018-06-17T13:58:34.343Z,999.69
2018-06-17T13:59:34.352Z,999.72
2018-06-17T14:00:34.362Z,999.67
2018-06-17T14:01:34.372Z,999.65
2018-06-17T14:02:34.383Z,999.77
2018-06-17T14:03:34.396Z,999.79
2018-06-17T14:04:34.404Z,999.83
2018-06-17T14:05:34.417Z,999.82
2018-06-17T14:06:34.428Z,999.76
2018-06-17T14:07:35.285Z,999.80
2018-06-17T14:08:35.738Z,999.83
2018-06-17T14:09:34.645Z,999.87
2018-06-17T14:10:34.564Z,999.84
2018-06-17T14:11:34.481Z,999.80
2018-06-17T14:12:34.950Z,999.86
2018-06-17T14:13:34.689Z,999.91
2018-06-17T14:14:34.514Z,999.92
2018-06-17T14:15:34.524Z,999.92
2018-06-17T14:16:34.533Z,999.84
2018-06-17T14:17:34.549Z,999.92
2018-06-17T14:18:34.554Z,999.99
2018-06-17T14:19:34.567Z,1000.00
2018-06-17T14:20:34.574Z,1000.01
2018-06-17T14:21:34.589Z,999.94
2018-06-17T14:22:34.597Z,999.94
2018-06-17T14:23:34.619Z,1000.05
2018-06-17T14:24:34.615Z,1000.16
2018-06-17T14:25:34.677Z,1000.00
2018-06-17T14:26:34.638Z,1000.03
2018-06-17T14:27:34.648Z,999.99
2018-06-17T14:28:34.659Z,999.99
2018-06-17T14:29:34.670Z,1000.09
2018-06-17T14:30:34.678Z,1000.08
2018-06-17T14:31:34.690Z,1000.10
2018-06-17T14:32:34.701Z,1000.10
2018-06-17T14:33:34.718Z,1000.08
2018-06-17T14:34:34.726Z,1000.06
2018-06-17T14:35:34.733Z,1000.05
2018-06-17T14:36:34.744Z,1000.06
2018-06-17T14:37:34.753Z,1000.07
2018-06-17T14:38:34.764Z,1000.11
2018-06-17T14:39:34.776Z,1000.10
2018-06-17T14:40:34.783Z,1000.08
2018-06-17T14:41:34.794Z,1000.10
2018-06-17T14:42:34.804Z,1000.16
2018-06-17T14:43:34.828Z,1000.20
2018-06-17T14:44:34.830Z,1000.11
2018-06-17T14:45:34.833Z,1000.11
2018-06-17T14:46:34.844Z,1000.13
2018-06-17T14:47:34.853Z,1000.09
2018-06-17T14:48:34.860Z,1000.21
2018-06-17T14:49:34.872Z,1000.18
2018-06-17T14:50:34.880Z,1000.16
2018-06-17T14:51:34.891Z,1000.18
2018-06-17T14:52:34.898Z,1000.14
2018-06-17T14:53:34.905Z,1000.15
2018-06-17T14:54:34.917Z,1000.18
2018-06-17T14:55:34.925Z,1000.14
2018-06-17T14:56:34.932Z,1000.09
2018-06-17T14:57:34.941Z,1000.13
2018-06-17T14:58:34.949Z,1000.15
2018-06-17T14:59:34.960Z,1000.26
2018-06-17T15:00:34.966Z,1000.19
2018-06-17T15:01:34.980Z,1000.18
2018-06-17T15:02:34.981Z,1000.16
2018-06-17T15:03:35.027Z,1000.13
2018-06-17T15:04:34.996Z,1000.16
2018-06-17T15:05:35.006Z,1000.18
2018-06-17T15:06:35.012Z,1000.19
2018-06-17T15:07:35.045Z,1000.19
2018-06-17T15:08:35.085Z,1000.22
2018-06-17T15:09:35.073Z,1000.28
2018-06-17T15:10:35.092Z,1000.19
2018-06-17T15:11:35.055Z,1000.18
2018-06-17T15:12:35.073Z,1000.20
2018-06-17T15:13:35.064Z,1000.25
2018-06-17T15:14:35.072Z,1000.22
2018-06-17T15:15:35.080Z,1000.24
2018-06-17T15:16:35.087Z,1000.26
2018-06-17T15:17:35.098Z,1000.26
2018-06-17T15:18:35.101Z,1000.22
2018-06-17T15:19:35.108Z,1000.24
2018-06-17T15:20:35.115Z,1000.24
2018-06-17T15:21:35.129Z,1000.22
2018-06-17T15:22:35.161Z,1000.16
2018-06-17T15:23:35.144Z,1000.13
2018-06-17T15:24:35.145Z,1000.17
2018-06-17T15:25:35.148Z,1000.16
2018-06-17T15:26:35.157Z,1000.22
2018-06-17T15:27:35.163Z,1000.24
2018-06-17T15:28:35.169Z,1000.18
2018-06-17T15:29:35.175Z,1000.21
2018-06-17T15:30:35.184Z,1000.24
2018-06-17T15:31:35.189Z,1000.24
2018-06-17T15:32:35.196Z,1000.24
2018-06-17T15:33:35.202Z,1000.21
2018-06-17T15:34:35.210Z,1000.24
2018-06-17T15:35:35.217Z,1000.27
2018-06-17T15:36:35.226Z,1000.18
2018-06-17T15:37:35.236Z,1000.20
2018-06-17T15:38:35.236Z,1000.18
2018-06-17T15:39:35.246Z,1000.22
2018-06-17T15:40:35.251Z,1000.23
2018-06-17T15:41:35.274Z,1000.24
2018-06-17T15:42:35.269Z,1000.20
2018-06-17T15:43:35.270Z,1000.17